Terminal Aerodrome Forecast
Issued by NWS Dodge City, KS

Home | Current Version | Previous Version | Text Only | Print | Product List | Glossary On
Versions: 1 2 3 4 5 6 7 8 9 10 11 12 13 14 15 16 17 18
000
FTUS43 KDDC 240500
TAFDDC
TAF
KDDC 240534Z 2406/2506 34033G42KT P6SM -TSRA BKN040CB
     FM240900 34025G32KT P6SM BKN090
     FM241300 34022G32KT P6SM SKC
     FM242300 33008KT P6SM SKC=

USA.gov is the U.S. government's official web portal to all federal, state and local government web resources and services.